Map

Track Data

SID SEASON NUMBER BASIN SUBBASIN NAME ISO_TIME NATURE LAT LON WMO_WIND WMO_PRES WMO_AGENCY TRACK_TYPE DIST2LAND LANDFALL IFLAG USA_AGENCY USA_ATCF_ID USA_LAT USA_LON USA_RECORD USA_STATUS USA_WIND USA_PRES USA_SSHS USA_R34_NE USA_R34_SE USA_R34_SW USA_R34_NW USA_R50_NE USA_R50_SE USA_R50_SW USA_R50_NW USA_R64_NE USA_R64_SE USA_R64_SW USA_R64_NW USA_POCI USA_ROCI USA_RMW USA_EYE TOKYO_LAT TOKYO_LON TOKYO_GRADE TOKYO_WIND TOKYO_PRES TOKYO_R50_DIR TOKYO_R50_LONG TOKYO_R50_SHORT TOKYO_R30_DIR TOKYO_R30_LONG TOKYO_R30_SHORT TOKYO_LAND CMA_LAT CMA_LON CMA_CAT CMA_WIND CMA_PRES HKO_LAT HKO_LON HKO_CAT HKO_WIND HKO_PRES NEWDELHI_LAT NEWDELHI_LON NEWDELHI_GRADE NEWDELHI_WIND NEWDELHI_PRES NEWDELHI_CI NEWDELHI_DP NEWDELHI_POCI REUNION_LAT REUNION_LON REUNION_TYPE REUNION_WIND REUNION_PRES REUNION_TNUM REUNION_CI REUNION_RMW REUNION_R34_NE REUNION_R34_SE REUNION_R34_SW REUNION_R34_NW REUNION_R50_NE REUNION_R50_SE REUNION_R50_SW REUNION_R50_NW REUNION_R64_NE REUNION_R64_SE REUNION_R64_SW REUNION_R64_NW BOM_LAT BOM_LON BOM_TYPE BOM_WIND BOM_PRES BOM_TNUM BOM_CI BOM_RMW BOM_R34_NE BOM_R34_SE BOM_R34_SW BOM_R34_NW BOM_R50_NE BOM_R50_SE BOM_R50_SW BOM_R50_NW BOM_R64_NE BOM_R64_SE BOM_R64_SW BOM_R64_NW BOM_ROCI BOM_POCI BOM_EYE BOM_POS_METHOD BOM_PRES_METHOD NADI_LAT NADI_LON NADI_CAT NADI_WIND NADI_PRES WELLINGTON_LAT WELLINGTON_LON WELLINGTON_WIND WELLINGTON_PRES DS824_LAT DS824_LON DS824_STAGE DS824_WIND DS824_PRES TD9636_LAT TD9636_LON TD9636_STAGE TD9636_WIND TD9636_PRES TD9635_LAT TD9635_LON TD9635_WIND TD9635_PRES TD9635_ROCI NEUMANN_LAT NEUMANN_LON NEUMANN_CLASS NEUMANN_WIND NEUMANN_PRES MLC_LAT MLC_LON MLC_CLASS MLC_WIND MLC_PRES USA_GUST BOM_GUST BOM_GUST_PER REUNION_GUST REUNION_GUST_PER USA_SEAHGT USA_SEARAD_NE USA_SEARAD_SE USA_SEARAD_SW USA_SEARAD_NW STORM_SPEED STORM_DIR
1904346S08064 1905 46 SI MM NOT_NAMED 1904-12-10 18:00:00 NR -7.50000 63.6000 main 1547 1538 __________O___ -1 -7.50000 63.6000 7 5 265
1904346S08064 1905 46 SI MM NOT_NAMED 1904-12-10 21:00:00 NR -7.51881 63.3719 main 1538 1525 __________P___ -1 -7.51881 63.3719 7 5 265
1904346S08064 1905 46 SI MM NOT_NAMED 1904-12-11 00:00:00 NR -7.54005 63.1350 main 1525 1507 __________P___ -1 -7.54005 63.1350 7 5 264
1904346S08064 1905 46 SI MM NOT_NAMED 1904-12-11 03:00:00 NR -7.56628 62.8806 main 1507 1495 __________P___ -1 -7.56628 62.8806 7 5 264
1904346S08064 1905 46 SI MM NOT_NAMED 1904-12-11 06:00:00 NR -7.60000 62.6000 main 1495 1484 __________O___ -1 -7.60000 62.6000 7 6 263
1904346S08064 1905 46 SI MM NOT_NAMED 1904-12-11 09:00:00 NR -7.64278 62.2869 main 1484 1450 __________P___ -1 -7.64278 62.2869 7 7 262
1904346S08064 1905 46 SI MM NOT_NAMED 1904-12-11 12:00:00 NR -7.69244 61.9450 main 1441 1411 __________P___ -1 -7.69244 61.9450 7 7 262
1904346S08064 1905 46 SI MM NOT_NAMED 1904-12-11 15:00:00 NR -7.74587 61.5806 main 1411 1366 __________P___ -1 -7.74587 61.5806 7 7 262
1904346S08064 1905 46 SI MM NOT_NAMED 1904-12-11 18:00:00 NR -7.80000 61.2000 main 1366 1322 __________O___ -1 -7.80000 61.2000 7 8 262
1904346S08064 1905 46 SI MM NOT_NAMED 1904-12-11 21:00:00 NR -7.85416 60.7900 main 1322 1282 __________P___ -1 -7.85416 60.7900 7 8 263
1904346S08064 1905 46 SI MM NOT_NAMED 1904-12-12 00:00:00 NR -7.90765 60.3701 main 1282 1238 __________P___ -1 -7.90765 60.3701 7 8 263
1904346S08064 1905 46 SI MM NOT_NAMED 1904-12-12 03:00:00 NR -7.95730 59.9650 main 1238 1199 __________P___ -1 -7.95730 59.9650 7 8 263
1904346S08064 1905 46 SI MM NOT_NAMED 1904-12-12 06:00:00 NR -8.00000 59.6000 main 1199 1170 __________O___ -1 -8.00000 59.6000 7 7 264
1904346S08064 1905 46 SI MM NOT_NAMED 1904-12-12 09:00:00 NR -8.02792 59.3068 main 1170 1151 __________P___ -1 -8.02792 59.3068 7 5 265
1904346S08064 1905 46 SI MM NOT_NAMED 1904-12-12 12:00:00 NR -8.04974 59.0549 main 1151 1117 __________P___ -1 -8.04974 59.0549 7 5 265
1904346S08064 1905 46 SI MM NOT_NAMED 1904-12-12 15:00:00 NR -8.07171 58.8256 main 1117 1098 __________P___ -1 -8.07171 58.8256 7 5 264
1904346S08064 1905 46 SI MM NOT_NAMED 1904-12-12 18:00:00 NR -8.10000 58.6000 main 1098 1079 __________O___ -1 -8.10000 58.6000 7 5 261
1904346S08064 1905 46 SI MM NOT_NAMED 1904-12-12 21:00:00 NR -8.14269 58.3662 main 1079 1045 __________P___ -1 -8.14269 58.3662 7 5 259
1904346S08064 1905 46 SI MM NOT_NAMED 1904-12-13 00:00:00 NR -8.19231 58.1300 main 1045 1026 __________P___ -1 -8.19231 58.1300 7 5 258
1904346S08064 1905 46 SI MM NOT_NAMED 1904-12-13 03:00:00 NR -8.24579 57.8787 main 1026 992 __________P___ -1 -8.24579 57.8787 7 5 258
1904346S08064 1905 46 SI MM NOT_NAMED 1904-12-13 06:00:00 NR -8.30000 57.6000 main 992 965 __________O___ -1 -8.30000 57.6000 7 6 261
1904346S08064 1905 46 SI MM NOT_NAMED 1904-12-13 09:00:00 NR -8.34194 57.2706 main 965 922 __________P___ -1 -8.34194 57.2706 7 7 263
1904346S08064 1905 46 SI MM NOT_NAMED 1904-12-13 12:00:00 NR -8.38510 56.9149 main 922 895 __________P___ -1 -8.38510 56.9149 7 7 262
1904346S08064 1905 46 SI MM NOT_NAMED 1904-12-13 15:00:00 NR -8.43569 56.5518 main 895 851 __________P___ -1 -8.43569 56.5518 7 7 261
1904346S08064 1905 46 SI MM NOT_NAMED 1904-12-13 18:00:00 NR -8.50000 56.2000 main 851 817 __________O___ -1 -8.50000 56.2000 7 7 257
1904346S08064 1905 46 SI MM NOT_NAMED 1904-12-13 21:00:00 NR -8.58543 55.8978 main 817 783 __________P___ -1 -8.58543 55.8978 7 6 252
1904346S08064 1905 46 SI MM NOT_NAMED 1904-12-14 00:00:00 NR -8.68472 55.6074 main 783 749 __________P___ -1 -8.68472 55.6074 7 6 250
1904346S08064 1905 46 SI MM NOT_NAMED 1904-12-14 03:00:00 NR -8.79166 55.3134 main 749 715 __________P___ -1 -8.79166 55.3134 7 6 250
1904346S08064 1905 46 SI MM NOT_NAMED 1904-12-14 06:00:00 NR -8.90000 55.0000 main 715 681 __________O___ -1 -8.90000 55.0000 7 7 252
1904346S08064 1905 46 SI MM NOT_NAMED 1904-12-14 09:00:00 NR -9.00408 54.6425 main 672 638 __________P___ -1 -9.00408 54.6425 7 8 254
1904346S08064 1905 46 SI MM NOT_NAMED 1904-12-14 12:00:00 NR -9.10752 54.2650 main 638 595 __________P___ -1 -9.10752 54.2650 7 8 255
1904346S08064 1905 46 SI MM NOT_NAMED 1904-12-14 15:00:00 NR -9.20719 53.8800 main 595 553 __________P___ -1 -9.20719 53.8800 7 8 256
1904346S08064 1905 46 SI MM NOT_NAMED 1904-12-14 18:00:00 NR -9.30000 53.5000 main 553 520 __________O___ -1 -9.30000 53.5000 7 8 257
1904346S08064 1905 46 SI MM NOT_NAMED 1904-12-14 21:00:00 NR -9.37804 53.1346 main 511 486 __________P___ -1 -9.37804 53.1346 7 7 258
1904346S08064 1905 46 SI MM NOT_NAMED 1904-12-15 00:00:00 NR -9.44990 52.7774 main 486 454 __________P___ -1 -9.44990 52.7774 7 7 258
1904346S08064 1905 46 SI MM NOT_NAMED 1904-12-15 03:00:00 NR -9.52181 52.4315 main 446 414 __________P___ -1 -9.52181 52.4315 7 7 257
1904346S08064 1905 46 SI MM NOT_NAMED 1904-12-15 06:00:00 NR -9.60000 52.1000 main 414 383 __________O___ -1 -9.60000 52.1000 7 6 254
1904346S08064 1905 46 SI MM NOT_NAMED 1904-12-15 09:00:00 NR -9.69662 51.8018 main 383 352 __________P___ -1 -9.69662 51.8018 7 6 251
1904346S08064 1905 46 SI MM NOT_NAMED 1904-12-15 12:00:00 NR -9.79964 51.5149 main 352 322 __________P___ -1 -9.79964 51.5149 7 6 250
1904346S08064 1905 46 SI MM NOT_NAMED 1904-12-15 15:00:00 NR -9.90285 51.2206 main 322 293 __________P___ -1 -9.90285 51.2206 7 6 252
1904346S08064 1905 46 SI MM NOT_NAMED 1904-12-15 18:00:00 NR -10.0000 50.9000 main 293 265 __________O___ -1 -10.0000 50.9000 7 7 256
1904346S08064 1905 46 SI MM NOT_NAMED 1904-12-15 21:00:00 NR -10.0658 50.5407 main 259 244 __________P___ -1 -10.0658 50.5407 7 7 260
1904346S08064 1905 46 SI MM NOT_NAMED 1904-12-16 00:00:00 NR -10.1273 50.1521 main 244 219 __________P___ -1 -10.1273 50.1521 7 8 260
1904346S08064 1905 46 SI MM NOT_NAMED 1904-12-16 03:00:00 NR -10.2002 49.7375 main 217 201 __________P___ -1 -10.2002 49.7375 7 9 258
1904346S08064 1905 46 SI MM NOT_NAMED 1904-12-16 06:00:00 NR -10.3000 49.3000 main 201 190 __________O___ -1 -10.3000 49.3000 7 9 254
1904346S08064 1905 46 SI MM NOT_NAMED 1904-12-16 09:00:00 NR -10.4461 48.8547 main 193 184 __________P___ -1 -10.4461 48.8547 7 10 250
1904346S08064 1905 46 SI MM NOT_NAMED 1904-12-16 12:00:00 NR -10.6198 48.3875 main 189 184 __________P___ -1 -10.6198 48.3875 7 10 249
1904346S08064 1905 46 SI MM NOT_NAMED 1904-12-16 15:00:00 NR -10.8085 47.9015 main 203 203 __________P___ -1 -10.8085 47.9015 7 10 249
1904346S08064 1905 46 SI MM NOT_NAMED 1904-12-16 18:00:00 NR -11.0000 47.4000 main 226 226 __________O___ -1 -11.0000 47.4000 7 10 250
1904346S08064 1905 46 SI MM NOT_NAMED 1904-12-16 21:00:00 NR -11.1705 46.9093 main 252 252 __________P___ -1 -11.1705 46.9093 7 10 251
1904346S08064 1905 46 SI MM NOT_NAMED 1904-12-17 00:00:00 NR -11.3419 46.4020 main 293 288 __________P___ -1 -11.3419 46.4020 7 11 251
1904346S08064 1905 46 SI MM NOT_NAMED 1904-12-17 03:00:00 NR -11.5173 45.8686 main 327 327 __________P___ -1 -11.5173 45.8686 7 11 252
1904346S08064 1905 46 SI MM NOT_NAMED 1904-12-17 06:00:00 NR -11.7000 45.3000 main 360 360 __________O___ -1 -11.7000 45.3000 7 12 252
1904346S08064 1905 46 SI MM NOT_NAMED 1904-12-17 09:00:00 NR -11.8889 44.6696 main 401 370 __________P___ -1 -11.8889 44.6696 7 13 253
1904346S08064 1905 46 SI MM NOT_NAMED 1904-12-17 12:00:00 NR -12.0853 44.0074 main 370 306 __________P___ -1 -12.0853 44.0074 7 14 253
1904346S08064 1905 46 SI MM NOT_NAMED 1904-12-17 15:00:00 NR -12.2889 43.3414 main 295 228 __________P___ -1 -12.2889 43.3414 7 13 252
1904346S08064 1905 46 SI MM NOT_NAMED 1904-12-17 18:00:00 NR -12.5000 42.7000 main 228 162 __________O___ -1 -12.5000 42.7000 7 13 250
1904346S08064 1905 46 SI MM NOT_NAMED 1904-12-17 21:00:00 NR -12.7185 42.1045 main 162 109 __________P___ -1 -12.7185 42.1045 7 12 248
1904346S08064 1905 46 SI MM NOT_NAMED 1904-12-18 00:00:00 NR -12.9428 41.5482 main 98 48 __________P___ -1 -12.9428 41.5482 7 12 247
1904346S08064 1905 46 SI MM NOT_NAMED 1904-12-18 03:00:00 NR -13.1707 41.0179 main 48 0 __________P___ -1 -13.1707 41.0179 7 11 246
1904346S08064 1905 46 SI MM NOT_NAMED 1904-12-18 06:00:00 NR -13.4000 40.5000 main 0 __________O___ -1 -13.4000 40.5000 7 11 246

About IBTrACS Database

This database is a web-friendly format of International Best Track Archive for Climate Stewardship (IBTrACS), a global best track data archive curated by NOAA dating back to 1842.

Updated: 2021-11-26